Tremonton, Utah
Current Conditions -  °F | °C
As of 12:55 AM on Friday 31 Oct 2014 (Local Time) from KBMC Reporting Station
Clear Clear  
Wind Chill: 42°   Ceiling: Unl
Heat Index: 44°   Visibility: 10mi
Dew Point: 34°   Wind: 5mph
Humidity: 68%   Direction: 130°SE
Pressure: 30.08"   Gusts: NA
Location:  41.71°N, 112.17°W
Report Text: KBMC 310655Z AUTO 13004KT 10SM CLR 07/01 A3008 RMK AO1 T00670011 403671020
Loading
Personal Weather Stations






























Interactive Weather Map New forecast layout! Learn more

10-Day Weather Forecast

Advertisements
Track Severe Weather on mobile